Bordeaux-Mérignac Airport

LFBD · Gironde, Nouvelle-Aquitaine, Francja

Historia METAR LFBD · Bordeaux-Mérignac Airport

Poniżej widzisz METAR-y z ostatnich kilku dni. Wybierz rok, aby przeglądać starsze METAR-y, począwszy od roku 2007.

15 czerwca 2024

Czas Kod Pogoda Temp. Widoczność Sufit Wiatr METAR/SPECI
09:00
V
14 °C 10 km+ 5.600 ft 220° 220° 8 kt METAR LFBD 150700Z AUTO 22008KT 9999 FEW014/// SCT038/// OVC056/// //////TCU 14/13 Q1014 TEMPO 22015G25KT
09:00
V
14 °C 10 km+ 5.600 ft 220° 220° 8 kt METAR LFBD 150700Z AUTO 22008KT 9999 FEW014/// SCT038/// OVC056/// //////TCU 14/13 Q1014 TEMPO 22015G25KT
08:30
I
15 °C 2,1 km 5.600 ft 250° 250° 8 kt METAR LFBD 150630Z AUTO 25008KT 220V280 9999 2100 FEW030/// SCT049/// BKN056/// ///TCU 15/13 Q1014 TEMPO 22015G25KT
08:00
V
14 °C 10 km+ - 210° 210° 7 kt METAR LFBD 150600Z AUTO 21007KT CAVOK 14/13 Q1014 TEMPO 22015G25KT BKN025TCU
07:30
V
13 °C 10 km+ 7.800 ft 200° 200° 4 kt METAR LFBD 150530Z AUTO 20004KT 170V230 9999 FEW024 SCT029 BKN078 13/12 Q1014 TEMPO 4000 SHRA BKN010 BKN025TCU
07:00
V
13 °C 10 km+ 3.600 ft 210° 210° 6 kt METAR LFBD 150500Z AUTO 21006KT 9999 SCT027 BKN036 BKN074 13/12 Q1014 TEMPO 4000 SHRA BKN010 BKN025TCU
06:30
V
13 °C 8 km 3.400 ft 220° 220° 6 kt METAR LFBD 150430Z AUTO 22006KT 8000 RA SCT027 BKN034 BKN052 13/12 Q1014 TEMPO 4000 SHRA BKN010 BKN025TCU
06:00
V
13 °C 10 km+ 4.000 ft 240° 240° 4 kt METAR LFBD 150400Z AUTO 24004KT 190V290 9999 FEW029 SCT034 BKN040 13/11 Q1014 TEMPO 4000 SHRA BKN010 BKN025TCU
05:30
V
12 °C 10 km+ - 220° 220° 6 kt METAR LFBD 150330Z AUTO 22006KT CAVOK 12/11 Q1014 TEMPO 4000 SHRA BKN010 BKN025TCU
05:00
V
12 °C 10 km+ - 210° 210° 6 kt METAR LFBD 150300Z AUTO 21006KT 9999 FEW034/// //////TCU 12/11 Q1014 TEMPO 4000 SHRA BKN010 BKN025TCU
04:30
V
13 °C 10 km+ - 230° 230° 6 kt METAR LFBD 150230Z AUTO 23006KT 9999 FEW034 SCT054 13/11 Q1014 TEMPO 4000 SHRA BKN010 BKN025TCU
04:00
V
12 °C 10 km+ - 220° 220° 6 kt METAR LFBD 150200Z AUTO 22006KT CAVOK 12/11 Q1014 TEMPO 4000 SHRA BKN010 BKN025TCU
03:30
V
13 °C 10 km+ - 220° 220° 4 kt METAR LFBD 150130Z AUTO 22004KT 200V260 CAVOK 13/11 Q1014 TEMPO 4000 SHRA BKN010 BKN025TCU
03:00
V
13 °C 10 km+ - 220° 220° 5 kt METAR LFBD 150100Z AUTO 22005KT 9999 FEW030 13/12 Q1014 NOSIG
02:30
V
14 °C 10 km+ 4.100 ft 220° 220° 5 kt METAR LFBD 150030Z AUTO 22005KT 9999 FEW028 SCT034 BKN041 14/12 Q1014 NOSIG
02:00
V
14 °C 10 km+ 9.400 ft 220° 220° 6 kt METAR LFBD 150000Z AUTO 22006KT 9999 FEW031 SCT040 OVC094 14/12 Q1014 NOSIG
01:30
V
14 °C 10 km+ 9.000 ft 230° 230° 7 kt METAR LFBD 142330Z AUTO 23007KT 9999 FEW030 BKN090 14/12 Q1014 NOSIG
01:00
V
14 °C 10 km+ - 230° 230° 7 kt METAR LFBD 142300Z AUTO 23007KT CAVOK 14/12 Q1014 NOSIG
00:30
V
15 °C 10 km+ - 250° 250° 9 kt METAR LFBD 142230Z AUTO 25009KT CAVOK 15/12 Q1014 NOSIG
00:00
V
15 °C 10 km+ 8.800 ft 260° 260° 10 kt METAR LFBD 142200Z AUTO 26010KT 9999 SCT032 SCT042 OVC088 15/13 Q1013 NOSIG

14 czerwca 2024

Czas Kod Pogoda Temp. Widoczność Sufit Wiatr METAR/SPECI
23:30
V
15 °C 10 km+ 8.200 ft 250° 250° 7 kt METAR LFBD 142130Z AUTO 25007KT 9999 FEW030 OVC082 15/13 Q1013 NOSIG
23:00
V
15 °C 10 km+ - 250° 250° 8 kt METAR LFBD 142100Z AUTO 25008KT CAVOK 15/13 Q1013 NOSIG
22:30
V
15 °C 10 km+ - 250° 250° 8 kt METAR LFBD 142030Z AUTO 25008KT CAVOK 15/14 Q1013 NOSIG
22:00
V
16 °C 10 km+ - 260° 260° 10 kt METAR LFBD 142000Z AUTO 26010KT CAVOK 16/14 Q1013 NOSIG
21:30
V
16 °C 10 km+ 4.400 ft 260° 260° 11 kt METAR LFBD 141930Z AUTO 26011KT 9999 FEW009 SCT021 BKN044 16/15 Q1012 NOSIG
21:00
V
16 °C 10 km+ 6.600 ft 240° 240° 10 kt METAR LFBD 141900Z AUTO 24010KT 9999 -RA FEW007/// OVC066/// //////TCU 16/15 Q1012 TEMPO 2000 SHRA BKN006 BKN025TCU SCT030CB
20:30
I
15 °C 10 km+ 800 ft 230° 230° 9 kt METAR LFBD 141830Z AUTO 23009KT 210V270 9999 BKN008/// OVC056/// //////TCU 15/14 Q1012 TEMPO 2000 SHRA BKN010 BKN025TCU SCT030CB
20:00
V
16 °C 10 km+ 6.000 ft 240° 240° 8 kt METAR LFBD 141800Z AUTO 24008KT 9999 RA FEW009/// OVC060/// //////TCU 16/14 Q1012 TEMPO 2000 SHRA BKN010 BKN025TCU SCT030CB
19:30
I
16 °C 3,6 km 4.300 ft 250° 250° 8 kt METAR LFBD 141730Z AUTO 25008KT 3600 RA BR FEW028/// BKN043/// OVC058/// //////CB 16/14 Q1012 TEMPO 2000 -SHRA BKN010 BKN025TCU
19:00
V
16 °C 10 km+ 4.400 ft 260° 260° 5 kt METAR LFBD 141700Z AUTO 26005KT 240V300 9999 OVC044/// ///CB 16/14 Q1011 TEMPO 2000 -SHRA BKN010 BKN025TCU
18:30
V
16 °C 10 km+ 4.000 ft 270° 270° 6 kt METAR LFBD 141630Z AUTO 27006KT 9999 BKN040/// OVC050/// //////CB 16/14 Q1012 TEMPO 2000 -SHRA BKN010 BKN025TCU
18:00
V
16 °C 10 km+ 3.300 ft 280° 280° 8 kt METAR LFBD 141600Z AUTO 28008KT 9999 -RA FEW014/// SCT023/// BKN033/// //////CB 16/15 Q1012 TEMPO 2000 -SHRA BKN010 BKN025TCU
17:30
M
16 °C 10 km+ 1.400 ft 300° 300° 14 kt METAR LFBD 141530Z AUTO 30014KT 9999 -RA SCT008/// BKN014/// OVC019/// ///CB 16/14 Q1012 TEMPO 2000 -SHRA BECMG 23010KT
17:00
I
18 °C 2 km 1.100 ft 270° 270° 12 kt METAR LFBD 141500Z AUTO 27012KT 9999 2000 -RA BKN011/// BKN017/// BKN024/// //////CB 18/16 Q1012 TEMPO 2000 -SHRA
16:30
V
19 °C 10 km+ 4.300 ft 270° 270° 9 kt METAR LFBD 141430Z AUTO 27009KT 9999 FEW010/// BKN043/// OVC050/// ///CB 19/16 Q1012 TEMPO 2000 -SHRA BKN010 BKN025TCU
16:00
M
19 °C 10 km+ 1.300 ft 280° 280° 8 kt METAR LFBD 141400Z AUTO 28008KT 9999 SCT009/// BKN013/// BKN036/// //////TCU 19/16 Q1012 TEMPO 2000 -SHRA
15:30
V
19 °C 10 km+ 5.000 ft 260° 260° 8 kt METAR LFBD 141330Z AUTO 26008KT 240V310 9999 FEW013/// OVC050/// ///TCU 19/16 Q1012 TEMPO 2000 -SHRA BKN010 BKN025TCU
15:00
M
19 °C 10 km+ 2.200 ft 270° 270° 10 kt METAR LFBD 141300Z AUTO 27010KT 9999 -RA BKN022/// BKN029/// OVC039/// ///TCU 19/16 Q1013 TEMPO 2000 -SHRA BKN010 BKN025TCU
14:30
M
20 °C 10 km+ 2.500 ft 260° 260° 11 kt METAR LFBD 141230Z AUTO 26011KT 9999 SCT020/// BKN025/// BKN031/// ///TCU 20/16 Q1013 TEMPO 2000 -SHRA BKN010 BKN025TCU
14:00
M
20 °C 10 km+ 2.000 ft 240° 240° 10 kt METAR LFBD 141200Z AUTO 24010KT 9999 BKN020/// BKN032/// OVC056/// //////TCU 20/16 Q1012 TEMPO 2000 -SHRA BKN010 BKN025TCU
13:30
M
20 °C 10 km+ 2.000 ft 230° 230° 9 kt METAR LFBD 141130Z AUTO 23009KT 9999 BKN020/// BKN025/// BKN032/// //////TCU 20/16 Q1012 BECMG BKN030
13:00
M
20 °C 10 km+ 1.900 ft 240° 240° 9 kt METAR LFBD 141100Z AUTO 24009KT 9999 BKN019/// BKN025/// OVC056/// ///TCU 20/16 Q1013 TEMPO 2000 SHRA BECMG BKN030
12:30
M
20 °C 10 km+ 1.700 ft 240° 240° 12 kt METAR LFBD 141030Z AUTO 24012KT 9999 BKN017 OVC062 20/16 Q1013 TEMPO 2000 SHRA BKN010TCU
12:00
M
19 °C 10 km+ 1.400 ft 240° 240° 11 kt METAR LFBD 141000Z AUTO 24011KT 9999 OVC014/// ///TCU 19/16 Q1013 TEMPO 2000 SHRA
11:30
M
19 °C 10 km+ 1.700 ft 230° 230° 12 kt METAR LFBD 140930Z AUTO 23012KT 9999 BKN017/// BKN024/// OVC029/// ///TCU 19/15 Q1013 TEMPO 2000 SHRA BKN010TCU
11:00
M
19 °C 10 km+ 1.700 ft 240° 240° 13 kt METAR LFBD 140900Z AUTO 24013KT 9999 OVC017 19/15 Q1013 TEMPO 2000 SHRA BKN010TCU
10:30
M
18 °C 10 km+ 1.800 ft 220° 220° 9 kt METAR LFBD 140830Z AUTO 22009KT 190V250 9999 BKN018 OVC028 18/15 Q1013 TEMPO 2000 SHRA BKN010TCU
10:00
M
17 °C 10 km+ 1.700 ft 220° 220° 8 kt METAR LFBD 140800Z AUTO 22008KT 190V250 9999 OVC017 17/15 Q1013 TEMPO 2000 SHRA BKN010TCU
09:30
M
17 °C 10 km+ 1.900 ft 210° 210° 8 kt METAR LFBD 140730Z AUTO 21008KT 9999 SCT013 BKN019 OVC026 17/15 Q1013 TEMPO 2000 SHRA BKN010TCU
09:00
M
17 °C 10 km+ 1.700 ft 210° 210° 8 kt METAR LFBD 140700Z AUTO 21008KT 170V240 9999 OVC017/// ///TCU 17/15 Q1013 TEMPO 2000 SHRA BKN005
08:30
M
16 °C 10 km+ 1.900 ft 210° 210° 7 kt METAR LFBD 140630Z AUTO 21007KT 9999 BKN019/// OVC024/// ///TCU 16/15 Q1013 TEMPO 2000 SHRA BKN005
08:00
M
16 °C 10 km+ 2.100 ft 210° 210° 7 kt METAR LFBD 140600Z AUTO 21007KT 9999 OVC021 16/15 Q1013 TEMPO 4500 -RADZ BKN005
07:30
M
16 °C 10 km+ 2.300 ft 210° 210° 8 kt METAR LFBD 140530Z AUTO 21008KT 9999 OVC023 16/15 Q1013 TEMPO 4500 -RA BKN010
07:00
I
16 °C 3,9 km 2.400 ft 210° 210° 6 kt METAR LFBD 140500Z AUTO 21006KT 9999 3900 -DZ OVC024/// ///TCU 16/15 Q1013 TEMPO 4500 -RA BKN010
06:30
M
16 °C 10 km+ 2.500 ft 220° 220° 6 kt METAR LFBD 140430Z AUTO 22006KT 9999 BKN025/// BKN030/// BKN040/// //////TCU 16/15 Q1013 TEMPO 4500 -RA BKN010
06:00
M
16 °C 10 km+ 2.400 ft 220° 220° 7 kt METAR LFBD 140400Z AUTO 22007KT 9999 FEW006/// OVC024/// //////CB 16/15 Q1013 TEMPO 3000 RADZ BKN005 BKN010
05:30
I
16 °C 6 km 900 ft 210° 210° 10 kt METAR LFBD 140330Z AUTO 21010KT 180V240 6000 BKN009/// BKN013/// OVC019/// ///TCU 16/15 Q1013 TEMPO 3000 RADZ BKN005 BKN010
05:00
M
17 °C 10 km+ 1.400 ft 210° 210° 8 kt METAR LFBD 140300Z AUTO 21008KT 9999 OVC014 17/15 Q1013 TEMPO 3000 RADZ BKN005 BKN010
04:30
M
16 °C 10 km+ 1.100 ft 210° 210° 6 kt METAR LFBD 140230Z AUTO 21006KT 9999 OVC011 16/15 Q1013 TEMPO 3000 RADZ BKN005 BKN010
04:00
I
16 °C 10 km+ 800 ft 230° 230° 7 kt METAR LFBD 140200Z AUTO 23007KT 9999 OVC008 16/15 Q1014 TEMPO 3000 RADZ
03:30
I
16 °C 10 km+ 700 ft 220° 220° 7 kt METAR LFBD 140130Z AUTO 22007KT 9999 BKN007 BKN011 OVC016 16/15 Q1014 TEMPO 3000 RADZ
03:00
I
16 °C 10 km+ 600 ft 230° 230° 7 kt METAR LFBD 140100Z AUTO 23007KT 9999 BKN006 OVC011 16/16 Q1014 TEMPO 3000 RADZ
02:30
I
16 °C 10 km+ 600 ft 240° 240° 8 kt METAR LFBD 140030Z AUTO 24008KT 9999 BKN006 OVC010 16/16 Q1014 TEMPO 3000 RADZ
02:00
I
17 °C 10 km+ 700 ft 240° 240° 7 kt METAR LFBD 140000Z AUTO 24007KT 9999 BKN007 BKN014 OVC020 17/16 Q1015 TEMPO 3000 RADZ
01:30
M
16 °C 7 km 1.100 ft 270° 270° 9 kt METAR LFBD 132330Z AUTO 27009KT 7000 DZ SCT006 BKN011 BKN017 16/15 Q1015 TEMPO 3000 RADZ BKN005 BKN010
01:00
M
16 °C 10 km+ 1.000 ft 260° 260° 10 kt METAR LFBD 132300Z AUTO 26010KT 9999 OVC010 16/15 Q1015 TEMPO 3000 RADZ
00:30
I
16 °C 10 km+ 700 ft 260° 260° 9 kt METAR LFBD 132230Z AUTO 26009KT 9999 -RADZ OVC007 16/15 Q1015 TEMPO 3000 RADZ
00:00
I
16 °C 10 km+ 800 ft 260° 260° 10 kt METAR LFBD 132200Z AUTO 26010KT 9999 DZ OVC008 16/15 Q1016 TEMPO 3000 RADZ

13 czerwca 2024

Czas Kod Pogoda Temp. Widoczność Sufit Wiatr METAR/SPECI
23:30
M
16 °C 10 km+ 1.100 ft 260° 260° 9 kt METAR LFBD 132130Z AUTO 26009KT 9999 DZ OVC011 16/14 Q1016 TEMPO 3000 RADZ BKN005 BKN010
23:00
M
17 °C 10 km+ 1.400 ft 260° 260° 11 kt METAR LFBD 132100Z AUTO 26011KT 9999 -RADZ BKN014 OVC020 17/13 Q1016 TEMPO 26015G25KT 3000 RADZ NSC
22:30
M
17 °C 10 km+ 2.100 ft 270° 270° 9 kt METAR LFBD 132030Z AUTO 27009KT 240V300 9999 DZ BKN021 OVC072 17/13 Q1016 TEMPO 26015G25KT 3000 RADZ BKN005 BKN010
22:00
V
18 °C 10 km+ - 270° 270° 12 kt METAR LFBD 132000Z AUTO 27012KT 240V300 CAVOK 18/12 Q1016 TEMPO 26015G25KT
21:30
V
19 °C 10 km+ - 280° 280° 13 kt METAR LFBD 131930Z AUTO 28013KT CAVOK 19/11 Q1016 TEMPO 26015G25KT
21:00
V
20 °C 10 km+ - 280° 280° 10 kt METAR LFBD 131900Z AUTO 28010KT CAVOK 20/10 Q1016 TEMPO 26015G25KT
20:30
V
20 °C 10 km+ - 300° 300° 16 kt METAR LFBD 131830Z AUTO 30016KT CAVOK 20/08 Q1015 TEMPO 26015G25KT
20:00
V
22 °C 10 km+ - 270° 270° 11 kt METAR LFBD 131800Z AUTO 27011KT 240V300 CAVOK 22/07 Q1015 TEMPO 26015G25KT
19:30
V
23 °C 10 km+ - 260° 260° 12 kt METAR LFBD 131730Z AUTO 26012KT CAVOK 23/07 Q1015 TEMPO 26015G25KT
19:00
V
24 °C 10 km+ - 250° 250° 12 kt METAR LFBD 131700Z AUTO 25012KT CAVOK 24/07 Q1014 TEMPO 26015G25KT
18:00
V
24 °C 10 km+ - 250° 250° 12 kt METAR LFBD 131600Z AUTO 25012KT 220V280 CAVOK 24/06 Q1015 NOSIG
17:30
V
25 °C 10 km+ - 220° 220° 10 kt METAR LFBD 131530Z AUTO 22010KT 190V250 CAVOK 25/07 Q1015 NOSIG
17:00
V
24 °C 10 km+ - 200° 200° 9 kt METAR LFBD 131500Z AUTO 20009KT 170V240 CAVOK 24/05 Q1015 NOSIG
16:30
V
24 °C 10 km+ - 220° 220° 9 kt METAR LFBD 131430Z AUTO 22009KT 190V260 CAVOK 24/05 Q1015 NOSIG
16:00
V
24 °C 10 km+ - 220° 220° 6 kt METAR LFBD 131400Z AUTO 22006KT 180V250 CAVOK 24/05 Q1016 NOSIG
15:30
V
24 °C 10 km+ - 200° 200° 7 kt METAR LFBD 131330Z AUTO 20007KT 140V260 CAVOK 24/05 Q1016 NOSIG
15:00
V
24 °C 10 km+ - 180° 180° 6 kt METAR LFBD 131300Z AUTO 18006KT 120V250 CAVOK 24/05 Q1016 NOSIG
14:30
V
23 °C 10 km+ - 200° 200° 8 kt METAR LFBD 131230Z AUTO 20008KT 130V260 CAVOK 23/05 Q1017 NOSIG
14:00
V
23 °C 10 km+ - 180° 180° 8 kt METAR LFBD 131200Z AUTO 18008KT 140V210 CAVOK 23/05 Q1017 NOSIG
13:30
V
22 °C 10 km+ - 190° 190° 6 kt METAR LFBD 131130Z AUTO 19006KT 090V240 CAVOK 22/06 Q1017 NOSIG
13:00
V
22 °C 10 km+ - 190° 190° 7 kt METAR LFBD 131100Z AUTO 19007KT 120V240 CAVOK 22/05 Q1018 NOSIG
12:30
V
21 °C 10 km+ - 180° 180° 5 kt METAR LFBD 131030Z AUTO 18005KT 120V230 CAVOK 21/06 Q1018 NOSIG
12:00
V
20 °C 10 km+ - 160° 160° 8 kt METAR LFBD 131000Z AUTO 16008KT 120V180 CAVOK 20/06 Q1018 NOSIG
11:30
V
19 °C 10 km+ - 160° 160° 8 kt METAR LFBD 130930Z AUTO 16008KT 130V200 CAVOK 19/07 Q1019 NOSIG
11:00
V
19 °C 10 km+ - 180° 180° 7 kt METAR LFBD 130900Z AUTO 18007KT 150V270 CAVOK 19/08 Q1019 NOSIG
10:30
V
18 °C 10 km+ - 170° 170° 6 kt METAR LFBD 130830Z AUTO 17006KT 130V240 CAVOK 18/09 Q1019 NOSIG
10:00
V
17 °C 10 km+ - 200° 200° 5 kt METAR LFBD 130800Z AUTO 20005KT 150V290 CAVOK 17/10 Q1019 NOSIG
09:30
V
16 °C 10 km+ - 230° 230° 4 kt METAR LFBD 130730Z AUTO 23004KT 180V270 CAVOK 16/11 Q1019 NOSIG
09:00
V
15 °C 10 km+ - 220° 220° 5 kt METAR LFBD 130700Z AUTO 22005KT 180V240 CAVOK 15/11 Q1020 NOSIG
08:30
V
14 °C 10 km+ - 220° 220° 3 kt METAR LFBD 130630Z AUTO 22003KT CAVOK 14/11 Q1020 NOSIG
08:00
V
12 °C 10 km+ - 230° 230° 4 kt METAR LFBD 130600Z AUTO 23004KT CAVOK 12/11 Q1020 NOSIG
Zgłoś zmianę